Time;durP1;ratioP1;P1;durP2;ratioP2;P2;SDS_P1;SDS_P2;PMS_P1;PMS_P2;Temp;Humidity;BMP_temperature;BMP_pressure;BME280_temperature;BME280_humidity;BME280_pressure;Samples;Min_cycle;Max_cycle;Signal;HPM_P1;HPM_P2
2022/11/29 00:01:14;;;;;;;5.67;1.90;;;;;;;-1.34;100.00;101835.94;1645609;86;21537;-65
2022/11/29 00:03:41;;;;;;;4.53;2.00;;;;;;;-1.37;100.00;101838.62;1646909;85;20968;-65
2022/11/29 00:06:13;;;;;;;5.67;2.30;;;;;;;-1.26;100.00;101831.31;1654352;86;21399;-70
2022/11/29 00:08:41;;;;;;;5.72;1.50;;;;;;;-1.31;100.00;101831.98;1643630;85;21106;-66
2022/11/29 00:14:01;;;;;;;6.75;2.60;;;;;;;-1.49;100.00;101832.77;1669093;85;21096;-66
2022/11/29 00:16:29;;;;;;;4.53;2.33;;;;;;;-1.54;100.00;101818.09;1652362;85;21087;-65
2022/11/29 00:18:58;;;;;;;4.05;2.00;;;;;;;-1.56;100.00;101845.44;1657200;85;21265;-66
2022/11/29 00:21:25;;;;;;;3.15;1.85;;;;;;;-1.59;100.00;101845.56;1655965;85;21075;-66
2022/11/29 00:23:52;;;;;;;4.92;1.80;;;;;;;-1.62;100.00;101842.71;1657394;85;21182;-65
2022/11/29 00:26:20;;;;;;;4.75;1.98;;;;;;;-1.62;100.00;101844.45;1657275;85;20905;-66
2022/11/29 00:28:47;;;;;;;4.20;1.50;;;;;;;-1.62;100.00;101847.00;1655825;86;21089;-65
2022/11/29 00:31:25;;;;;;;3.95;1.98;;;;;;;-1.64;100.00;101848.33;1682328;84;21418;-70
2022/11/29 00:33:52;;;;;;;4.50;2.27;;;;;;;-1.64;100.00;101843.21;1685302;84;21007;-65
2022/11/29 00:36:20;;;;;;;5.47;1.90;;;;;;;-1.64;100.00;101833.44;1654979;86;21012;-65
2022/11/29 00:38:48;;;;;;;4.83;2.05;;;;;;;-1.65;100.00;101833.89;1673330;84;22659;-65
2022/11/29 00:41:15;;;;;;;5.00;1.52;;;;;;;-1.64;100.00;101827.05;1682979;84;21521;-68
2022/11/29 00:43:42;;;;;;;4.22;1.85;;;;;;;-1.68;100.00;101814.02;1685015;85;22181;-66
2022/11/29 00:46:10;;;;;;;5.35;1.77;;;;;;;-1.68;100.00;101821.23;1685610;84;20924;-71
2022/11/29 00:48:39;;;;;;;4.75;1.70;;;;;;;-1.72;100.00;101815.88;1680863;85;21075;-66
2022/11/29 00:51:07;;;;;;;6.22;1.75;;;;;;;-1.75;100.00;101833.44;1683245;85;21074;-66
2022/11/29 00:53:34;;;;;;;6.40;2.05;;;;;;;-1.79;100.00;101828.52;1686572;85;21553;-66
2022/11/29 00:56:02;;;;;;;5.03;1.98;;;;;;;-1.82;100.00;101824.39;1687152;85;21222;-66
2022/11/29 00:58:29;;;;;;;5.42;1.72;;;;;;;-1.84;100.00;101821.06;1686248;85;21548;-65
2022/11/29 01:00:56;;;;;;;4.10;1.67;;;;;;;-1.86;100.00;101830.50;1686402;85;21063;-64
2022/11/29 01:03:24;;;;;;;6.53;2.05;;;;;;;-1.88;100.00;101822.08;1678158;85;21150;-65
2022/11/29 01:05:51;;;;;;;7.65;1.50;;;;;;;-1.89;100.00;101819.16;1658729;86;21106;-65
2022/11/29 01:08:19;;;;;;;6.42;2.08;;;;;;;-1.91;100.00;101818.38;1660846;86;21270;-65
2022/11/29 01:10:46;;;;;;;7.87;2.58;;;;;;;-1.93;100.00;101829.13;1661031;86;21108;-64
2022/11/29 01:13:13;;;;;;;6.62;1.82;;;;;;;-1.97;100.00;101822.45;1660891;86;21028;-69
2022/11/29 01:15:42;;;;;;;3.67;1.98;;;;;;;-1.99;100.00;101822.98;1660911;86;21020;-64
2022/11/29 01:18:10;;;;;;;4.17;1.55;;;;;;;-2.02;100.00;101839.70;1657579;86;21067;-66
2022/11/29 01:20:37;;;;;;;5.60;2.05;;;;;;;-2.05;100.00;101828.33;1661344;86;22553;-64
2022/11/29 01:23:04;;;;;;;3.22;1.50;;;;;;;-2.07;100.00;101823.75;1661400;85;21211;-66
2022/11/29 01:25:32;;;;;;;4.97;2.05;;;;;;;-2.10;100.00;101823.86;1660776;86;21542;-68
2022/11/29 01:27:59;;;;;;;8.25;2.20;;;;;;;-2.11;100.00;101823.48;1660546;86;21082;-65
2022/11/29 01:30:26;;;;;;;8.20;1.70;;;;;;;-2.14;100.00;101821.05;1660563;85;21087;-64
2022/11/29 01:32:55;;;;;;;4.78;1.92;;;;;;;-2.17;100.00;101820.72;1657450;85;21151;-65
2022/11/29 01:35:23;;;;;;;4.25;1.90;;;;;;;-2.22;100.00;101813.25;1661146;86;21003;-64
2022/11/29 01:37:51;;;;;;;5.83;1.65;;;;;;;-2.25;100.00;101821.03;1660378;86;21034;-65
2022/11/29 01:40:18;;;;;;;5.50;2.02;;;;;;;-2.30;100.00;101820.41;1659937;85;21636;-66
2022/11/29 01:42:46;;;;;;;4.40;1.85;;;;;;;-2.32;100.00;101819.62;1660654;85;21424;-64
2022/11/29 01:45:21;;;;;;;5.28;2.42;;;;;;;-2.36;100.00;101829.58;1650289;85;22299;-65
2022/11/29 01:47:50;;;;;;;6.90;2.52;;;;;;;-2.39;100.00;101829.69;1630421;87;21128;-66
2022/11/29 01:50:18;;;;;;;5.40;2.12;;;;;;;-2.40;100.00;101833.14;1652704;86;20920;-69
2022/11/29 01:52:45;;;;;;;4.92;2.02;;;;;;;-2.43;100.00;101829.43;1660821;85;21565;-65
2022/11/29 01:55:13;;;;;;;3.62;1.52;;;;;;;-2.45;100.00;101818.46;1661306;86;21023;-65
2022/11/29 01:57:41;;;;;;;4.72;2.05;;;;;;;-2.49;100.00;101817.75;1659437;86;21222;-65
2022/11/29 02:00:14;;;;;;;5.33;1.90;;;;;;;-2.50;100.00;101820.34;1659591;86;21050;-65
2022/11/29 02:02:48;;;;;;;4.97;1.50;;;;;;;-2.53;100.00;101817.48;1658786;86;28679;-66
2022/11/29 02:05:15;;;;;;;8.08;2.12;;;;;;;-2.55;100.00;101822.26;1657688;85;21015;-68
2022/11/29 02:07:44;;;;;;;5.10;1.67;;;;;;;-2.57;100.00;101817.23;1661131;86;21076;-69
2022/11/29 02:10:13;;;;;;;9.28;4.12;;;;;;;-2.60;100.00;101817.34;1661273;86;21312;-66
2022/11/29 02:13:00;;;;;;;4.60;1.60;;;;;;;-2.62;100.00;101808.89;1661590;85;21075;-67
2022/11/29 02:15:54;;;;;;;4.78;1.90;;;;;;;-2.64;100.00;101814.97;1653701;86;20964;-70
2022/11/29 02:18:49;;;;;;;7.05;1.67;;;;;;;-2.68;100.00;101812.16;1658733;86;20999;-65
2022/11/29 02:21:47;;;;;;;7.03;1.82;;;;;;;-2.70;100.00;101827.51;1657489;85;21146;-65
2022/11/29 02:24:28;;;;;;;5.15;1.80;;;;;;;-2.75;100.00;101804.72;1660342;86;21138;-67
2022/11/29 02:27:23;;;;;;;;;;;;;;;-2.75;100.00;101817.94;1664178;86;21032;-65
2022/11/29 02:30:04;;;;;;;6.67;1.98;;;;;;;-2.77;100.00;101817.97;1659768;86;20258;-66
2022/11/29 02:32:50;;;;;;;5.00;2.00;;;;;;;-2.78;100.00;101805.28;1637648;86;21003;-66
2022/11/29 02:35:25;;;;;;;6.58;1.95;;;;;;;-2.80;100.00;101812.19;1656968;86;20904;-69
2022/11/29 02:38:29;;;;;;;5.65;1.67;;;;;;;-2.82;100.00;101812.23;1661534;86;21243;-65
2022/11/29 02:41:23;;;;;;;2.58;1.22;;;;;;;-2.85;100.00;101810.23;1657347;86;21070;-64
2022/11/29 02:44:17;;;;;;;6.45;1.75;;;;;;;-2.87;100.00;101815.41;1659454;86;21122;-66
2022/11/29 02:46:58;;;;;;;4.53;1.65;;;;;;;-2.89;100.00;101817.17;1649125;86;22452;-65
2022/11/29 02:49:47;;;;;;;;;;;;;;;-2.89;100.00;101821.45;1663777;86;21071;-66
2022/11/29 02:52:45;;;;;;;5.55;1.37;;;;;;;-2.92;100.00;101818.56;1660464;85;21275;-66
2022/11/29 02:55:21;;;;;;;4.47;1.80;;;;;;;-2.95;100.00;101823.80;1661251;86;21580;-69
2022/11/29 02:58:11;;;;;;;5.40;1.47;;;;;;;-2.98;100.00;101818.36;1661516;86;21646;-66
2022/11/29 03:00:53;;;;;;;7.50;2.08;;;;;;;-2.99;100.00;101820.98;1641469;87;21043;-65
2022/11/29 03:03:25;;;;;;;4.03;1.52;;;;;;;-2.99;100.00;101831.19;1619949;87;22061;-67
2022/11/29 03:06:17;;;;;;;4.72;1.37;;;;;;;-3.02;100.00;101824.92;1618905;87;21210;-66
2022/11/29 03:09:02;;;;;;;4.08;1.55;;;;;;;-3.03;100.00;101816.44;1631403;87;21092;-65
2022/11/29 03:11:40;;;;;;;7.03;1.85;;;;;;;-3.04;100.00;101830.06;1631981;87;21014;-65
2022/11/29 03:14:26;;;;;;;9.13;1.55;;;;;;;-3.06;100.00;101829.30;1633269;87;22234;-65
2022/11/29 03:17:06;;;;;;;5.78;1.75;;;;;;;-3.06;100.00;101834.85;1633918;87;21113;-66
2022/11/29 03:19:56;;;;;;;3.37;1.40;;;;;;;-3.06;100.00;101841.23;1633162;87;21242;-67
2022/11/29 03:22:35;;;;;;;4.37;2.05;;;;;;;-3.08;100.00;101842.54;1633525;87;21073;-65
2022/11/29 03:25:12;;;;;;;6.28;1.60;;;;;;;-3.09;100.00;101854.09;1630672;87;21057;-67
2022/11/29 03:27:44;;;;;;;4.40;1.60;;;;;;;-3.10;100.00;101847.33;1633821;87;20993;-65
2022/11/29 03:30:13;;;;;;;5.03;2.25;;;;;;;-3.13;100.00;101841.89;1633709;87;21531;-65
2022/11/29 03:33:07;;;;;;;6.85;1.65;;;;;;;-3.13;100.00;101862.30;1630680;87;21218;-67
2022/11/29 03:36:07;;;;;;;4.78;2.12;;;;;;;-3.15;100.00;101853.85;1633918;87;21508;-66
2022/11/29 03:38:42;;;;;;;6.15;1.70;;;;;;;-3.15;100.00;101856.84;1633202;87;21069;-66
2022/11/29 03:41:20;;;;;;;5.92;1.87;;;;;;;-3.16;100.00;101862.84;1633848;87;21058;-65
2022/11/29 03:44:01;;;;;;;4.78;1.52;;;;;;;-3.17;100.00;101865.02;1633417;87;20959;-65
2022/11/29 03:46:42;;;;;;;5.37;1.67;;;;;;;-3.18;100.00;101871.84;1632711;87;21266;-65
2022/11/29 03:49:33;;;;;;;4.73;1.53;;;;;;;-3.19;100.00;101877.80;1637434;86;21117;-67
2022/11/29 03:52:34;;;;;;;4.33;2.10;;;;;;;-3.20;100.00;101883.80;1634469;87;21785;-65
2022/11/29 03:55:15;;;;;;;4.65;1.37;;;;;;;-3.22;100.00;101887.69;1634261;87;21012;-66
2022/11/29 03:58:06;;;;;;;7.05;2.45;;;;;;;-3.23;100.00;101877.08;1634181;87;21087;-66
2022/11/29 04:01:21;;;;;;;6.35;2.52;;;;;;;-3.23;100.00;101878.36;1624178;87;21247;-67
2022/11/29 04:04:23;;;;;;;3.87;1.52;;;;;;;-3.26;100.00;101882.31;1622163;88;21102;-66
2022/11/29 04:07:13;;;;;;;3.52;1.52;;;;;;;-3.26;100.00;101877.22;1602197;88;21012;-67
2022/11/29 04:10:26;;;;;;;5.78;1.95;;;;;;;-3.26;100.00;101881.45;1623049;88;21069;-65
2022/11/29 04:13:34;;;;;;;9.08;1.98;;;;;;;-3.31;100.00;101879.07;1623065;88;21511;-66
2022/11/29 04:16:44;;;;;;;3.70;1.70;;;;;;;-3.34;100.00;101874.52;1622376;88;22335;-66
2022/11/29 04:19:35;;;;;;;4.75;1.75;;;;;;;-3.36;100.00;101873.31;1621990;88;21082;-68
2022/11/29 04:22:31;;;;;;;5.08;2.08;;;;;;;-3.39;100.00;101879.79;1623152;87;21055;-66
2022/11/29 04:25:26;;;;;;;4.87;1.60;;;;;;;-3.41;100.00;101861.15;1622353;87;21177;-66
2022/11/29 04:28:30;;;;;;;4.42;1.62;;;;;;;-3.43;100.00;101870.59;1623036;87;21019;-66
2022/11/29 04:31:24;;;;;;;4.45;2.52;;;;;;;-3.46;100.00;101879.61;1622949;87;22084;-66
2022/11/29 04:34:11;;;;;;;6.37;2.10;;;;;;;-3.48;100.00;101890.31;1622983;87;21099;-65
2022/11/29 04:36:43;;;;;;;6.42;1.90;;;;;;;-3.50;100.00;101890.35;1623081;88;21027;-65
2022/11/29 04:39:44;;;;;;;5.33;1.92;;;;;;;-3.53;100.00;101889.17;1622170;88;20927;-68
2022/11/29 04:42:29;;;;;;;3.50;1.40;;;;;;;-3.55;100.00;101890.96;1623139;87;20963;-68
2022/11/29 04:45:41;;;;;;;7.90;1.60;;;;;;;-3.55;100.00;101887.58;1622965;87;21351;-66
2022/11/29 04:48:29;;;;;;;3.60;1.72;;;;;;;-3.58;100.00;101888.95;1622796;87;21098;-65
2022/11/29 04:51:04;;;;;;;4.12;1.62;;;;;;;-3.58;100.00;101891.50;1622635;87;20992;-67
2022/11/29 04:53:43;;;;;;;4.33;1.72;;;;;;;-3.59;100.00;101894.95;1622270;88;21081;-65
2022/11/29 04:56:24;;;;;;;5.30;1.60;;;;;;;-3.59;100.00;101899.59;1622579;87;20904;-65
2022/11/29 04:59:16;;;;;;;3.42;1.40;;;;;;;-3.59;100.00;101908.97;1612581;87;21249;-64
2022/11/29 05:02:08;;;;;;;4.12;1.32;;;;;;;-3.59;100.00;101909.80;1632764;87;21010;-66
2022/11/29 05:04:52;;;;;;;8.45;2.00;;;;;;;-3.61;100.00;101915.81;1632150;87;21084;-66
2022/11/29 05:08:01;;;;;;;5.70;1.72;;;;;;;-3.57;100.00;101916.10;1632383;87;21042;-64
2022/11/29 05:11:01;;;;;;;5.03;1.72;;;;;;;-3.54;100.00;101928.75;1613941;88;20982;-65
2022/11/29 05:13:52;;;;;;;4.42;1.62;;;;;;;-3.49;100.00;101928.14;1631661;87;22522;-65
2022/11/29 05:16:45;;;;;;;4.03;1.82;;;;;;;-3.40;100.00;101935.50;1613330;88;21051;-67
2022/11/29 05:19:42;;;;;;;5.05;2.27;;;;;;;-3.35;100.00;101935.34;1632600;87;22665;-66
2022/11/29 05:22:33;;;;;;;4.50;2.10;;;;;;;-3.27;100.00;101946.92;1599798;88;21123;-68
2022/11/29 05:25:11;;;;;;;4.67;2.05;;;;;;;-3.14;100.00;101942.67;1655943;86;20907;-66
2022/11/29 05:27:59;;;;;;;4.67;1.65;;;;;;;-3.11;100.00;101948.95;1655137;86;21580;-68
2022/11/29 05:30:46;;;;;;;3.67;1.40;;;;;;;-3.11;100.00;101959.15;1630585;86;21085;-65
2022/11/29 05:33:52;;;;;;;5.22;2.10;;;;;;;-3.14;100.00;101963.08;1576869;90;21138;-67
2022/11/29 05:36:30;;;;;;;4.58;1.50;;;;;;;-3.11;100.00;101959.15;1627740;87;21050;-65
2022/11/29 05:39:14;;;;;;;5.85;1.75;;;;;;;-3.00;100.00;101974.47;1613563;88;21133;-65
2022/11/29 05:42:04;;;;;;;4.42;1.42;;;;;;;-2.74;100.00;101978.66;1631434;87;21291;-67
2022/11/29 05:44:51;;;;;;;4.80;1.60;;;;;;;-2.42;100.00;101988.16;1613125;88;21090;-65
2022/11/29 05:47:23;;;;;;;3.67;1.45;;;;;;;-2.18;100.00;101976.63;1632305;87;21029;-66
2022/11/29 05:50:19;;;;;;;9.60;1.90;;;;;;;-1.92;100.00;101984.12;1613950;88;21094;-65
2022/11/29 05:53:18;;;;;;;5.80;1.60;;;;;;;-1.93;100.00;101991.83;1602814;89;21616;-67
2022/11/29 05:56:03;;;;;;;3.10;1.12;;;;;;;-2.13;100.00;102002.37;1645181;85;21352;-66
2022/11/29 05:58:54;;;;;;;5.75;2.20;;;;;;;-2.38;100.00;101997.81;1671264;85;21034;-65
2022/11/29 06:01:25;;;;;;;4.42;1.42;;;;;;;-2.57;100.00;102001.48;1664800;85;21123;-65
2022/11/29 06:04:15;;;;;;;4.90;2.00;;;;;;;-2.68;100.00;102008.25;1671218;85;21013;-66
2022/11/29 06:06:51;;;;;;;4.60;1.40;;;;;;;-2.72;100.00;102010.08;1645548;85;21538;-64
2022/11/29 06:09:29;;;;;;;6.25;1.65;;;;;;;-2.61;100.00;102003.77;1648973;85;21836;-65
2022/11/29 06:12:07;;;;;;;4.83;1.77;;;;;;;-2.51;100.00;101998.24;1671761;85;21818;-66
2022/11/29 06:14:43;;;;;;;4.72;1.37;;;;;;;-2.47;100.00;102007.45;1671650;85;20895;-65
2022/11/29 06:17:42;;;;;;;5.62;2.12;;;;;;;-2.46;100.00;102018.53;1671003;85;21503;-65
2022/11/29 06:20:33;;;;;;;5.25;2.00;;;;;;;-2.45;100.00;102012.52;1628561;88;21540;-66
2022/11/29 06:23:40;;;;;;;5.05;2.20;;;;;;;-2.48;100.00;102014.73;1667952;85;21111;-66
2022/11/29 06:26:38;;;;;;;5.90;1.90;;;;;;;-2.48;100.00;102013.91;1657414;86;21991;-67
2022/11/29 06:29:26;;;;;;;6.08;2.20;;;;;;;-2.48;100.00;102004.97;1658202;86;21478;-67
2022/11/29 06:32:01;;;;;;;4.65;1.37;;;;;;;-2.48;100.00;102000.69;1671886;85;21064;-68
2022/11/29 06:34:59;;;;;;;6.50;2.02;;;;;;;-2.32;100.00;102012.45;1629232;88;21099;-67
2022/11/29 06:37:42;;;;;;;6.08;1.70;;;;;;;-1.98;100.00;102003.51;1671708;85;21924;-68
2022/11/29 06:40:14;;;;;;;5.87;1.60;;;;;;;-1.61;100.00;101993.12;1628297;88;21092;-67
2022/11/29 06:42:41;;;;;;;3.87;1.57;;;;;;;-1.32;100.00;101990.66;1650369;85;20980;-68
2022/11/29 06:45:13;;;;;;;5.00;2.40;;;;;;;-1.09;100.00;101993.53;1629639;88;21344;-67
2022/11/29 06:47:44;;;;;;;3.98;1.82;;;;;;;-0.86;100.00;101999.77;1672138;85;20927;-66
2022/11/29 06:50:41;;;;;;;6.75;1.85;;;;;;;-0.61;100.00;101994.38;1635498;86;21284;-65
2022/11/29 06:53:41;;;;;;;4.70;1.90;;;;;;;-0.53;100.00;102007.70;1658011;86;21006;-67
2022/11/29 06:56:30;;;;;;;5.22;1.72;;;;;;;-0.62;100.00;101994.02;1631642;86;21539;-67
2022/11/29 06:59:14;;;;;;;9.03;2.22;;;;;;;-0.61;100.00;101988.44;1660935;85;21415;-66
2022/11/29 07:01:56;;;;;;;6.87;2.05;;;;;;;-0.41;100.00;101986.28;1617945;88;21553;-67
2022/11/29 07:04:44;;;;;;;;;;;;;;;-0.32;100.00;101982.84;1662312;85;21352;-67
2022/11/29 07:07:14;;;;;;;6.25;1.67;;;;;;;-0.23;100.00;101981.58;1667332;85;20399;-67
2022/11/29 07:09:42;;;;;;;10.10;2.67;;;;;;;-0.17;100.00;101989.45;1667763;85;28484;-69
2022/11/29 07:12:12;;;;;;;4.87;1.98;;;;;;;-0.11;100.00;101987.89;1665247;85;21000;-70
2022/11/29 07:14:40;;;;;;;6.22;2.10;;;;;;;-0.03;100.00;101990.92;1642412;86;21070;-69
2022/11/29 07:17:52;;;;;;;4.72;1.60;;;;;;;0.10;100.00;101991.98;1660175;85;21222;-67
2022/11/29 07:20:44;;;;;;;4.78;2.08;;;;;;;0.15;100.00;101988.78;1666972;85;21425;-67
2022/11/29 07:23:33;;;;;;;4.47;1.42;;;;;;;0.12;100.00;102013.28;1632320;86;21139;-70
2022/11/29 07:26:14;;;;;;;5.55;2.50;;;;;;;0.19;100.00;101995.42;1657396;85;21053;-70
2022/11/29 07:29:23;;;;;;;5.00;2.42;;;;;;;0.42;100.00;101992.20;1658716;86;21038;-69
2022/11/29 07:32:17;;;;;;;5.62;2.40;;;;;;;0.55;100.00;101993.24;1672561;85;21164;-69
2022/11/29 07:34:59;;;;;;;5.90;1.90;;;;;;;0.67;100.00;101995.20;1658275;86;21139;-71
2022/11/29 07:37:58;;;;;;;5.92;2.02;;;;;;;0.69;100.00;101998.98;1672619;85;21049;-69
2022/11/29 07:40:46;;;;;;;6.42;2.10;;;;;;;0.81;100.00;101998.83;1658142;86;21616;-70
2022/11/29 07:43:53;;;;;;;5.70;2.47;;;;;;;0.78;100.00;102002.83;1670053;85;20935;-68
2022/11/29 07:46:20;;;;;;;6.03;1.70;;;;;;;0.79;100.00;101991.64;1647939;86;21827;-70
2022/11/29 07:48:47;;;;;;;7.65;1.60;;;;;;;0.83;100.00;101994.42;1655712;86;20968;-68
2022/11/29 07:51:15;;;;;;;5.15;1.90;;;;;;;0.80;100.00;101999.74;1650579;86;21524;-70
2022/11/29 07:53:43;;;;;;;3.65;1.20;;;;;;;0.83;100.00;101988.02;1663660;85;21061;-70
2022/11/29 07:56:11;;;;;;;3.37;1.30;;;;;;;0.83;100.00;101993.14;1645525;85;20992;-67
2022/11/29 07:58:38;;;;;;;4.35;2.00;;;;;;;0.76;100.00;101999.48;1658504;85;21154;-68
2022/11/29 08:01:06;;;;;;;3.35;1.10;;;;;;;0.73;100.00;102011.59;1672701;85;21985;-71
2022/11/29 08:03:34;;;;;;;7.72;2.33;;;;;;;0.71;100.00;101995.42;1658355;86;21043;-71
2022/11/29 08:06:01;;;;;;;4.85;2.12;;;;;;;0.72;100.00;101994.53;1672423;85;21060;-69
2022/11/29 08:08:29;;;;;;;7.37;2.10;;;;;;;0.88;100.00;101996.33;1657249;86;21027;-68
2022/11/29 08:10:57;;;;;;;6.83;2.15;;;;;;;1.00;100.00;101985.42;1654788;86;21277;-70
2022/11/29 08:13:25;;;;;;;5.17;2.20;;;;;;;1.06;100.00;101975.28;1657994;86;21027;-71
2022/11/29 08:15:53;;;;;;;4.85;1.30;;;;;;;1.06;100.00;101974.00;1657940;86;21015;-71
2022/11/29 08:18:21;;;;;;;3.40;1.47;;;;;;;1.03;100.00;101984.45;1658292;86;20984;-69
2022/11/29 08:20:48;;;;;;;6.25;2.12;;;;;;;1.03;100.00;101985.28;1657304;86;21581;-71
2022/11/29 08:23:18;;;;;;;4.75;1.60;;;;;;;1.09;100.00;101972.10;1658013;86;21369;-68
2022/11/29 08:25:45;;;;;;;5.40;1.35;;;;;;;1.14;100.00;101966.30;1651744;86;21101;-71
2022/11/29 08:28:13;;;;;;;5.22;1.87;;;;;;;1.24;100.00;101955.52;1662310;85;20934;-69
2022/11/29 08:30:41;;;;;;;4.10;1.40;;;;;;;1.28;100.00;101964.27;1656988;86;20952;-68
2022/11/29 08:33:08;;;;;;;4.92;1.90;;;;;;;1.29;100.00;101953.53;1672067;85;21543;-71
2022/11/29 08:35:36;;;;;;;4.55;1.50;;;;;;;1.23;100.00;101962.86;1614553;86;21912;-70
2022/11/29 08:38:04;;;;;;;6.15;1.57;;;;;;;1.24;100.00;101955.52;1605533;89;21528;-71
2022/11/29 08:40:31;;;;;;;4.87;1.95;;;;;;;1.21;100.00;101952.22;1605064;89;21225;-70
2022/11/29 08:42:58;;;;;;;5.97;2.02;;;;;;;1.10;100.00;101946.81;1625216;87;21133;-72
2022/11/29 08:45:27;;;;;;;4.53;1.75;;;;;;;1.16;100.00;101958.49;1671990;85;21048;-69
2022/11/29 08:47:55;;;;;;;10.98;1.40;;;;;;;1.23;100.00;101950.02;1629976;88;21177;-68
2022/11/29 08:50:24;;;;;;;5.37;1.32;;;;;;;1.29;100.00;101965.09;1671979;85;20966;-68
2022/11/29 08:55:39;;;;;;;10.45;2.77;;;;;;;1.22;100.00;101936.35;1633350;87;20944;-72
2022/11/29 08:58:10;;;;;;;15.55;7.12;;;;;;;1.23;100.00;101939.74;1626652;88;21048;-68
2022/11/29 09:00:37;;;;;;;6.75;2.30;;;;;;;1.27;100.00;101933.53;1625932;87;22268;-69
2022/11/29 09:05:52;;;;;;;7.03;2.47;;;;;;;1.32;100.00;101925.11;1626701;88;21023;-69
2022/11/29 09:08:19;;;;;;;7.40;2.80;;;;;;;1.35;100.00;101932.66;1625513;88;20999;-70
2022/11/29 09:10:47;;;;;;;5.90;2.45;;;;;;;1.46;100.00;101918.78;1628852;86;22017;-70
2022/11/29 09:13:14;;;;;;;5.03;2.12;;;;;;;1.53;100.00;101911.11;1654719;86;21323;-70
2022/11/29 09:15:43;;;;;;;6.12;2.33;;;;;;;1.56;100.00;101913.98;1654748;86;21410;-70
2022/11/29 09:18:10;;;;;;;4.42;1.35;;;;;;;1.58;100.00;101910.40;1654183;86;20968;-69
2022/11/29 09:20:37;;;;;;;7.55;2.47;;;;;;;1.58;100.00;101901.86;1654049;86;21063;-70
2022/11/29 09:23:05;;;;;;;6.08;1.42;;;;;;;1.47;100.00;101903.73;1654526;86;21859;-70
2022/11/29 09:25:33;;;;;;;5.33;1.22;;;;;;;1.49;100.00;101903.66;1654542;86;21264;-70
2022/11/29 09:28:02;;;;;;;5.60;1.30;;;;;;;1.41;100.00;101904.91;1653667;86;21102;-70
2022/11/29 09:30:30;;;;;;;6.70;1.80;;;;;;;1.32;100.00;101906.67;1651189;86;21083;-70
2022/11/29 09:33:01;;;;;;;4.37;1.37;;;;;;;1.37;100.00;101897.45;1640887;86;21113;-70
2022/11/29 09:35:28;;;;;;;7.12;2.40;;;;;;;1.51;100.00;101900.53;1642734;86;21019;-71
2022/11/29 09:37:57;;;;;;;9.00;1.45;;;;;;;1.54;100.00;101890.09;1641616;86;21560;-71
2022/11/29 09:40:43;;;;;;;7.12;1.85;;;;;;;1.55;100.00;101891.74;1639039;86;21480;-69
2022/11/29 09:43:45;;;;;;;5.35;1.20;;;;;;;1.53;100.00;101890.56;1643468;86;20979;-71
2022/11/29 09:46:45;;;;;;;4.70;1.62;;;;;;;1.57;100.00;101892.50;1605822;89;21409;-71
2022/11/29 09:49:50;;;;;;;4.30;1.85;;;;;;;1.62;100.00;101886.18;1627470;87;21449;-72
2022/11/29 09:52:43;;;;;;;7.53;1.87;;;;;;;1.67;100.00;101894.95;1605477;87;21167;-70
2022/11/29 09:55:38;;;;;;;6.42;1.45;;;;;;;1.66;100.00;101881.23;1625701;86;21362;-71
2022/11/29 09:58:08;;;;;;;4.80;1.52;;;;;;;1.76;100.00;101895.70;1607913;89;21973;-68
2022/11/29 10:00:39;;;;;;;7.10;1.32;;;;;;;1.88;100.00;101891.62;1605109;89;21500;-71
2022/11/29 10:03:24;;;;;;;5.17;1.77;;;;;;;1.95;100.00;101895.04;1607787;89;21054;-69
2022/11/29 10:06:30;;;;;;;6.20;2.58;;;;;;;2.03;100.00;101885.60;1601965;89;21133;-68
2022/11/29 10:09:02;;;;;;;6.55;1.77;;;;;;;2.08;100.00;101890.48;1603269;87;21029;-69
2022/11/29 10:12:04;;;;;;;4.15;1.55;;;;;;;2.05;100.00;101883.78;1587557;90;20975;-71
2022/11/29 10:14:42;;;;;;;5.15;1.70;;;;;;;2.06;99.95;101879.00;1587654;90;21087;-71
2022/11/29 10:17:29;;;;;;;5.45;1.70;;;;;;;2.06;100.00;101872.58;1587716;90;21095;-69
2022/11/29 10:20:07;;;;;;;5.08;1.55;;;;;;;2.06;96.33;101909.87;1561229;90;21897;-69
2022/11/29 10:22:58;;;;;;;5.25;1.52;;;;;;;1.97;94.08;101882.11;1586611;90;21138;-69
2022/11/29 10:25:33;;;;;;;5.47;1.52;;;;;;;1.97;96.85;101873.11;1586961;90;21051;-70
2022/11/29 10:28:01;;;;;;;5.75;1.70;;;;;;;2.06;93.10;101867.89;1587196;90;21137;-69
2022/11/29 10:30:31;;;;;;;4.30;1.67;;;;;;;2.09;92.77;101874.97;1562774;90;21109;-71
2022/11/29 10:32:59;;;;;;;3.62;1.32;;;;;;;2.10;93.29;101873.23;1587545;90;21794;-69
2022/11/29 10:35:28;;;;;;;4.25;1.10;;;;;;;2.14;91.46;101863.95;1587708;90;21102;-68
2022/11/29 10:37:56;;;;;;;4.65;1.77;;;;;;;2.13;88.87;101871.31;1577636;88;21600;-70
2022/11/29 10:40:32;;;;;;;8.10;1.98;;;;;;;2.08;88.42;101857.86;1601186;87;21122;-70
2022/11/29 10:42:59;;;;;;;5.53;2.27;;;;;;;2.01;88.04;101860.45;1609934;88;21039;-70
2022/11/29 10:45:33;;;;;;;4.08;1.65;;;;;;;1.98;88.41;101879.08;1606039;87;21627;-68
2022/11/29 10:48:18;;;;;;;4.37;1.30;;;;;;;1.91;89.18;101860.59;1601487;88;21547;-70
2022/11/29 10:50:47;;;;;;;4.70;1.35;;;;;;;1.89;93.26;101863.69;1598961;88;21564;-70
2022/11/29 10:53:24;;;;;;;4.22;1.60;;;;;;;1.97;94.61;101865.83;1599482;88;21015;-69
2022/11/29 10:56:08;;;;;;;5.25;1.30;;;;;;;2.03;95.47;101867.59;1596809;88;21931;-69
2022/11/29 10:58:35;;;;;;;3.08;0.90;;;;;;;2.05;91.24;101868.35;1631103;87;21324;-68
2022/11/29 11:01:09;;;;;;;4.67;1.35;;;;;;;2.02;87.82;101858.70;1590900;89;21058;-70
2022/11/29 11:03:40;;;;;;;3.70;1.20;;;;;;;1.97;87.79;101864.11;1595330;89;21390;-68
2022/11/29 11:06:17;;;;;;;4.55;1.60;;;;;;;1.93;90.59;101867.74;1649649;86;21133;-70
2022/11/29 11:09:15;;;;;;;7.08;1.55;;;;;;;1.88;94.52;101861.58;1615339;88;20971;-70
2022/11/29 11:11:48;;;;;;;3.40;1.32;;;;;;;1.91;93.89;101876.84;1637246;87;21143;-67
2022/11/29 11:14:24;;;;;;;4.67;1.42;;;;;;;1.88;87.47;101866.73;1660698;86;20999;-69
2022/11/29 11:16:51;;;;;;;6.35;1.35;;;;;;;1.74;87.87;101865.84;1664041;86;21541;-69
2022/11/29 11:19:30;;;;;;;3.65;1.37;;;;;;;1.62;84.40;101854.05;1663993;86;20932;-69
2022/11/29 11:22:01;;;;;;;6.47;1.37;;;;;;;1.49;84.72;101860.80;1664144;86;20959;-67
2022/11/29 11:24:40;;;;;;;4.57;1.40;;;;;;;1.39;87.96;101862.21;1664235;86;21651;-70
2022/11/29 11:27:07;;;;;;;3.90;1.20;;;;;;;1.29;92.40;101864.91;1664064;86;20987;-72
2022/11/29 11:29:41;;;;;;;3.52;1.37;;;;;;;1.26;94.66;101863.34;1652318;86;21053;-69
2022/11/29 11:32:15;;;;;;;13.62;2.67;;;;;;;1.23;97.52;101853.23;1654157;86;21028;-67
2022/11/29 11:34:58;;;;;;;6.60;2.27;;;;;;;1.35;100.00;101868.44;1650656;86;21847;-68
2022/11/29 11:37:32;;;;;;;6.67;2.55;;;;;;;1.44;100.00;101875.66;1652519;86;21266;-66
2022/11/29 11:40:25;;;;;;;7.45;2.80;;;;;;;1.41;100.00;101856.55;1648610;86;21127;-67
2022/11/29 11:42:52;;;;;;;4.58;1.90;;;;;;;1.36;100.00;101858.52;1645371;86;21070;-67
2022/11/29 11:45:31;;;;;;;4.10;1.90;;;;;;;1.28;100.00;101859.40;1648430;86;20951;-70
2022/11/29 11:48:13;;;;;;;4.35;1.62;;;;;;;1.27;100.00;101846.19;1648130;86;22695;-68
2022/11/29 11:50:44;;;;;;;6.37;2.22;;;;;;;1.25;100.00;101847.57;1651817;86;21860;-70
2022/11/29 11:53:24;;;;;;;4.78;1.87;;;;;;;1.25;100.00;101830.02;1648338;85;21085;-67
2022/11/29 11:56:07;;;;;;;3.98;1.35;;;;;;;1.26;100.00;101830.41;1646150;84;21498;-68
2022/11/29 11:58:46;;;;;;;5.28;2.58;;;;;;;1.24;100.00;101841.21;1655390;86;20924;-70
2022/11/29 12:01:29;;;;;;;6.58;2.15;;;;;;;1.22;100.00;101836.17;1650740;86;20983;-68
2022/11/29 12:04:15;;;;;;;4.67;1.60;;;;;;;1.21;100.00;101834.49;1655206;86;21217;-68
2022/11/29 12:06:51;;;;;;;6.20;1.62;;;;;;;1.25;100.00;101836.44;1664337;86;21082;-68
2022/11/29 12:09:42;;;;;;;7.08;1.60;;;;;;;1.25;100.00;101846.29;1664492;86;20975;-70
2022/11/29 12:12:24;;;;;;;7.78;1.72;;;;;;;1.22;100.00;101841.31;1663825;86;20983;-72
2022/11/29 12:15:12;;;;;;;4.45;1.80;;;;;;;1.19;100.00;101852.57;1663806;86;20935;-69
2022/11/29 12:17:50;;;;;;;4.75;1.90;;;;;;;1.13;100.00;101858.48;1658743;86;21881;-68
2022/11/29 12:20:25;;;;;;;5.50;2.00;;;;;;;1.08;100.00;101860.48;1637294;87;21054;-69
2022/11/29 12:23:12;;;;;;;5.55;1.12;;;;;;;0.99;100.00;101855.85;1637270;87;21189;-69
2022/11/29 12:26:02;;;;;;;5.37;1.47;;;;;;;0.90;100.00;101862.28;1623000;87;21579;-69